sensor_id;sensor_type;location;lat;lon;timestamp;pressure;altitude;pressure_sealevel;temperature;humidity
55914;BME280;58179;48.776;9.124;2023-01-15T00:01:37;96180.22;;;7.90;100.00
55914;BME280;58179;48.776;9.124;2023-01-15T00:04:06;96187.06;;;7.91;100.00
55914;BME280;58179;48.776;9.124;2023-01-15T00:06:36;96154.41;;;7.97;100.00
55914;BME280;58179;48.776;9.124;2023-01-15T00:09:03;96159.41;;;7.99;100.00
55914;BME280;58179;48.776;9.124;2023-01-15T00:11:29;96152.31;;;7.99;100.00
55914;BME280;58179;48.776;9.124;2023-01-15T00:13:55;96152.03;;;7.91;100.00
55914;BME280;58179;48.776;9.124;2023-01-15T00:16:23;96160.75;;;7.96;100.00
55914;BME280;58179;48.776;9.124;2023-01-15T00:18:50;96154.16;;;8.04;100.00
55914;BME280;58179;48.776;9.124;2023-01-15T00:21:18;96152.84;;;8.11;100.00
55914;BME280;58179;48.776;9.124;2023-01-15T00:23:46;96148.88;;;8.09;100.00
55914;BME280;58179;48.776;9.124;2023-01-15T00:26:32;96132.00;;;8.10;100.00
55914;BME280;58179;48.776;9.124;2023-01-15T00:29:18;96143.84;;;8.23;100.00
55914;BME280;58179;48.776;9.124;2023-01-15T00:31:52;96134.88;;;8.13;100.00
55914;BME280;58179;48.776;9.124;2023-01-15T00:34:19;96131.22;;;8.09;100.00
55914;BME280;58179;48.776;9.124;2023-01-15T00:36:46;96129.38;;;8.05;100.00
55914;BME280;58179;48.776;9.124;2023-01-15T00:39:12;96106.16;;;8.12;100.00
55914;BME280;58179;48.776;9.124;2023-01-15T00:41:38;96106.41;;;8.21;100.00
55914;BME280;58179;48.776;9.124;2023-01-15T00:44:04;96100.09;;;8.22;100.00
55914;BME280;58179;48.776;9.124;2023-01-15T00:46:30;96096.94;;;8.25;100.00
55914;BME280;58179;48.776;9.124;2023-01-15T00:48:56;96091.66;;;8.20;100.00
55914;BME280;58179;48.776;9.124;2023-01-15T00:51:22;96091.91;;;8.28;100.00
55914;BME280;58179;48.776;9.124;2023-01-15T00:53:49;96098.22;;;8.27;100.00
55914;BME280;58179;48.776;9.124;2023-01-15T00:56:15;96088.75;;;8.41;100.00
55914;BME280;58179;48.776;9.124;2023-01-15T00:58:41;96080.06;;;8.26;100.00
55914;BME280;58179;48.776;9.124;2023-01-15T01:01:07;96083.50;;;8.31;100.00
55914;BME280;58179;48.776;9.124;2023-01-15T01:03:33;96064.75;;;8.23;100.00
55914;BME280;58179;48.776;9.124;2023-01-15T01:06:00;96068.97;;;8.24;100.00
55914;BME280;58179;48.776;9.124;2023-01-15T01:08:27;96061.31;;;8.27;100.00
55914;BME280;58179;48.776;9.124;2023-01-15T01:11:03;96066.06;;;8.30;100.00
55914;BME280;58179;48.776;9.124;2023-01-15T01:13:29;96063.16;;;8.37;100.00
55914;BME280;58179;48.776;9.124;2023-01-15T01:15:55;96052.88;;;8.35;100.00
55914;BME280;58179;48.776;9.124;2023-01-15T01:18:21;96051.59;;;8.33;100.00
55914;BME280;58179;48.776;9.124;2023-01-15T01:20:47;96055.28;;;8.27;100.00
55914;BME280;58179;48.776;9.124;2023-01-15T01:23:13;96057.34;;;8.30;100.00
55914;BME280;58179;48.776;9.124;2023-01-15T01:25:39;96061.34;;;8.22;100.00
55914;BME280;58179;48.776;9.124;2023-01-15T01:28:06;96051.56;;;8.28;100.00
55914;BME280;58179;48.776;9.124;2023-01-15T01:30:32;96056.06;;;8.22;100.00
55914;BME280;58179;48.776;9.124;2023-01-15T01:32:58;96064.53;;;8.19;100.00
55914;BME280;58179;48.776;9.124;2023-01-15T01:35:24;96062.41;;;8.16;100.00
55914;BME280;58179;48.776;9.124;2023-01-15T01:37:50;96077.72;;;8.09;100.00
55914;BME280;58179;48.776;9.124;2023-01-15T01:40:16;96054.00;;;8.09;100.00
55914;BME280;58179;48.776;9.124;2023-01-15T01:42:43;96057.44;;;8.09;100.00
55914;BME280;58179;48.776;9.124;2023-01-15T01:45:30;96050.53;;;8.34;100.00
55914;BME280;58179;48.776;9.124;2023-01-15T01:48:00;96042.88;;;8.37;100.00
55914;BME280;58179;48.776;9.124;2023-01-15T01:50:29;96042.34;;;8.30;100.00
55914;BME280;58179;48.776;9.124;2023-01-15T01:53:00;96031.53;;;8.42;100.00
55914;BME280;58179;48.776;9.124;2023-01-15T01:55:28;96036.00;;;8.41;100.00
55914;BME280;58179;48.776;9.124;2023-01-15T01:57:58;96043.06;;;8.51;100.00
55914;BME280;58179;48.776;9.124;2023-01-15T02:00:25;96033.31;;;8.57;100.00
55914;BME280;58179;48.776;9.124;2023-01-15T02:02:54;96023.81;;;8.50;100.00
55914;BME280;58179;48.776;9.124;2023-01-15T02:05:27;96024.91;;;8.44;100.00
55914;BME280;58179;48.776;9.124;2023-01-15T02:07:55;96021.75;;;8.47;100.00
55914;BME280;58179;48.776;9.124;2023-01-15T02:10:21;96017.16;;;8.68;100.00
55914;BME280;58179;48.776;9.124;2023-01-15T02:12:54;96027.41;;;8.75;100.00
55914;BME280;58179;48.776;9.124;2023-01-15T02:15:27;95998.69;;;8.68;100.00
55914;BME280;58179;48.776;9.124;2023-01-15T02:18:05;95998.06;;;8.81;100.00
55914;BME280;58179;48.776;9.124;2023-01-15T02:20:38;95997.28;;;8.81;100.00
55914;BME280;58179;48.776;9.124;2023-01-15T02:23:22;95987.78;;;8.80;100.00
55914;BME280;58179;48.776;9.124;2023-01-15T02:26:38;95996.44;;;8.90;100.00
55914;BME280;58179;48.776;9.124;2023-01-15T02:29:08;95996.91;;;8.98;100.00
55914;BME280;58179;48.776;9.124;2023-01-15T02:31:37;96001.56;;;9.16;100.00
55914;BME280;58179;48.776;9.124;2023-01-15T02:34:09;95986.78;;;9.15;100.00
55914;BME280;58179;48.776;9.124;2023-01-15T02:36:41;95990.53;;;9.04;100.00
55914;BME280;58179;48.776;9.124;2023-01-15T02:39:11;95993.97;;;9.04;100.00
55914;BME280;58179;48.776;9.124;2023-01-15T02:41:43;95993.63;;;9.16;100.00
55914;BME280;58179;48.776;9.124;2023-01-15T02:44:11;95992.38;;;9.03;100.00
55914;BME280;58179;48.776;9.124;2023-01-15T02:46:39;95992.47;;;8.93;100.00
55914;BME280;58179;48.776;9.124;2023-01-15T02:49:09;95989.03;;;8.92;100.00
55914;BME280;58179;48.776;9.124;2023-01-15T02:51:42;95988.94;;;9.08;100.00
55914;BME280;58179;48.776;9.124;2023-01-15T02:54:13;95987.94;;;8.99;100.00
55914;BME280;58179;48.776;9.124;2023-01-15T02:56:43;95987.19;;;8.93;100.00
55914;BME280;58179;48.776;9.124;2023-01-15T02:59:14;95986.09;;;8.99;100.00
55914;BME280;58179;48.776;9.124;2023-01-15T03:01:47;95980.38;;;8.82;100.00
55914;BME280;58179;48.776;9.124;2023-01-15T03:04:19;95993.25;;;8.93;100.00
55914;BME280;58179;48.776;9.124;2023-01-15T03:06:51;95988.31;;;9.21;100.00
55914;BME280;58179;48.776;9.124;2023-01-15T03:09:20;95984.81;;;9.25;100.00
55914;BME280;58179;48.776;9.124;2023-01-15T03:11:54;95979.88;;;9.19;100.00
55914;BME280;58179;48.776;9.124;2023-01-15T03:14:29;95986.56;;;9.06;100.00
55914;BME280;58179;48.776;9.124;2023-01-15T03:17:08;95979.28;;;8.88;100.00
55914;BME280;58179;48.776;9.124;2023-01-15T03:19:42;95983.50;;;8.94;100.00
55914;BME280;58179;48.776;9.124;2023-01-15T03:22:16;95958.66;;;8.95;100.00
55914;BME280;58179;48.776;9.124;2023-01-15T03:24:47;95960.75;;;8.98;100.00
55914;BME280;58179;48.776;9.124;2023-01-15T03:27:15;95968.03;;;9.11;100.00
55914;BME280;58179;48.776;9.124;2023-01-15T03:29:45;95968.97;;;9.25;100.00
55914;BME280;58179;48.776;9.124;2023-01-15T03:32:11;95959.22;;;9.26;100.00
55914;BME280;58179;48.776;9.124;2023-01-15T03:34:42;95959.00;;;9.17;100.00
55914;BME280;58179;48.776;9.124;2023-01-15T03:37:10;95955.28;;;9.23;100.00
55914;BME280;58179;48.776;9.124;2023-01-15T03:39:36;95952.53;;;9.33;100.00
55914;BME280;58179;48.776;9.124;2023-01-15T03:42:19;95945.19;;;9.30;100.00
55914;BME280;58179;48.776;9.124;2023-01-15T03:44:57;95943.88;;;9.28;100.00
55914;BME280;58179;48.776;9.124;2023-01-15T03:47:35;95954.44;;;9.28;100.00
55914;BME280;58179;48.776;9.124;2023-01-15T03:50:10;95963.41;;;9.32;100.00
55914;BME280;58179;48.776;9.124;2023-01-15T03:52:44;95958.41;;;9.30;100.00
55914;BME280;58179;48.776;9.124;2023-01-15T03:55:16;95930.16;;;9.26;100.00
55914;BME280;58179;48.776;9.124;2023-01-15T03:57:48;95940.03;;;9.44;100.00
55914;BME280;58179;48.776;9.124;2023-01-15T04:00:21;95969.28;;;9.53;100.00
55914;BME280;58179;48.776;9.124;2023-01-15T04:02:50;95952.41;;;9.49;100.00
55914;BME280;58179;48.776;9.124;2023-01-15T04:05:18;95945.06;;;9.46;100.00
55914;BME280;58179;48.776;9.124;2023-01-15T04:07:45;95940.56;;;9.70;100.00
55914;BME280;58179;48.776;9.124;2023-01-15T04:10:11;95935.16;;;9.56;100.00
55914;BME280;58179;48.776;9.124;2023-01-15T04:12:37;95924.72;;;9.70;100.00
55914;BME280;58179;48.776;9.124;2023-01-15T04:15:06;95918.44;;;9.66;100.00
55914;BME280;58179;48.776;9.124;2023-01-15T04:17:32;95933.28;;;9.62;100.00
55914;BME280;58179;48.776;9.124;2023-01-15T04:19:58;95931.69;;;9.61;100.00
55914;BME280;58179;48.776;9.124;2023-01-15T04:22:24;95906.63;;;9.58;100.00
55914;BME280;58179;48.776;9.124;2023-01-15T04:24:50;95908.13;;;9.64;100.00
55914;BME280;58179;48.776;9.124;2023-01-15T04:27:16;95903.97;;;9.58;100.00
55914;BME280;58179;48.776;9.124;2023-01-15T04:29:42;95916.13;;;9.83;100.00
55914;BME280;58179;48.776;9.124;2023-01-15T04:32:09;95918.69;;;9.64;100.00
55914;BME280;58179;48.776;9.124;2023-01-15T04:34:35;95908.09;;;9.69;100.00
55914;BME280;58179;48.776;9.124;2023-01-15T04:37:01;95911.28;;;9.66;100.00
55914;BME280;58179;48.776;9.124;2023-01-15T04:39:27;95907.94;;;9.61;100.00
55914;BME280;58179;48.776;9.124;2023-01-15T04:41:53;95912.53;;;9.74;100.00
55914;BME280;58179;48.776;9.124;2023-01-15T04:44:38;95905.47;;;9.69;100.00
55914;BME280;58179;48.776;9.124;2023-01-15T04:47:05;95910.84;;;9.83;100.00
55914;BME280;58179;48.776;9.124;2023-01-15T04:49:33;95918.97;;;9.87;100.00
55914;BME280;58179;48.776;9.124;2023-01-15T04:51:59;95902.16;;;10.01;100.00
55914;BME280;58179;48.776;9.124;2023-01-15T04:54:25;95918.03;;;10.01;100.00
55914;BME280;58179;48.776;9.124;2023-01-15T04:56:54;95910.50;;;9.90;100.00
55914;BME280;58179;48.776;9.124;2023-01-15T04:59:22;95920.31;;;10.08;100.00
55914;BME280;58179;48.776;9.124;2023-01-15T05:01:49;95914.97;;;10.13;100.00
55914;BME280;58179;48.776;9.124;2023-01-15T05:04:15;95908.66;;;10.09;100.00
55914;BME280;58179;48.776;9.124;2023-01-15T05:06:42;95902.16;;;10.01;100.00
55914;BME280;58179;48.776;9.124;2023-01-15T05:09:08;95906.72;;;9.96;100.00
55914;BME280;58179;48.776;9.124;2023-01-15T05:11:35;95916.91;;;9.84;100.00
55914;BME280;58179;48.776;9.124;2023-01-15T05:14:01;95906.47;;;9.74;100.00
55914;BME280;58179;48.776;9.124;2023-01-15T05:16:29;95925.91;;;9.83;100.00
55914;BME280;58179;48.776;9.124;2023-01-15T05:18:58;95941.78;;;9.83;100.00
55914;BME280;58179;48.776;9.124;2023-01-15T05:21:27;95963.53;;;9.75;100.00
55914;BME280;58179;48.776;9.124;2023-01-15T05:23:55;95968.97;;;9.59;100.00
55914;BME280;58179;48.776;9.124;2023-01-15T05:26:26;95985.16;;;9.48;100.00
55914;BME280;58179;48.776;9.124;2023-01-15T05:28:53;96004.97;;;9.16;100.00
55914;BME280;58179;48.776;9.124;2023-01-15T05:31:21;96011.31;;;8.76;100.00
55914;BME280;58179;48.776;9.124;2023-01-15T05:33:48;96034.06;;;8.62;100.00
55914;BME280;58179;48.776;9.124;2023-01-15T05:36:16;96027.00;;;8.42;100.00
55914;BME280;58179;48.776;9.124;2023-01-15T05:38:43;96043.16;;;8.21;100.00
55914;BME280;58179;48.776;9.124;2023-01-15T05:41:12;96024.22;;;8.08;100.00
55914;BME280;58179;48.776;9.124;2023-01-15T05:44:02;96035.09;;;7.76;100.00
55914;BME280;58179;48.776;9.124;2023-01-15T05:46:29;96031.16;;;7.64;100.00
55914;BME280;58179;48.776;9.124;2023-01-15T05:48:59;96040.09;;;7.53;100.00
55914;BME280;58179;48.776;9.124;2023-01-15T05:51:25;96040.38;;;7.41;100.00
55914;BME280;58179;48.776;9.124;2023-01-15T05:53:51;96036.19;;;7.35;100.00
55914;BME280;58179;48.776;9.124;2023-01-15T05:56:18;96047.75;;;7.24;100.00
55914;BME280;58179;48.776;9.124;2023-01-15T05:58:44;96045.63;;;7.11;100.00
55914;BME280;58179;48.776;9.124;2023-01-15T06:01:10;96056.16;;;7.11;100.00
55914;BME280;58179;48.776;9.124;2023-01-15T06:03:36;96052.44;;;6.96;100.00
55914;BME280;58179;48.776;9.124;2023-01-15T06:06:03;96048.75;;;6.92;100.00
55914;BME280;58179;48.776;9.124;2023-01-15T06:08:29;96047.69;;;6.88;100.00
55914;BME280;58179;48.776;9.124;2023-01-15T06:10:55;96059.22;;;6.77;100.00
55914;BME280;58179;48.776;9.124;2023-01-15T06:13:23;96038.19;;;6.72;100.00
55914;BME280;58179;48.776;9.124;2023-01-15T06:15:49;96054.75;;;6.68;100.00
55914;BME280;58179;48.776;9.124;2023-01-15T06:18:15;96061.56;;;6.64;100.00
55914;BME280;58179;48.776;9.124;2023-01-15T06:20:41;96066.81;;;6.58;100.00
55914;BME280;58179;48.776;9.124;2023-01-15T06:23:08;96058.13;;;6.53;100.00
55914;BME280;58179;48.776;9.124;2023-01-15T06:25:35;96066.50;;;6.50;100.00
55914;BME280;58179;48.776;9.124;2023-01-15T06:28:01;96081.47;;;6.44;100.00
55914;BME280;58179;48.776;9.124;2023-01-15T06:30:28;96065.94;;;6.38;100.00
55914;BME280;58179;48.776;9.124;2023-01-15T06:32:54;96068.28;;;6.39;100.00
55914;BME280;58179;48.776;9.124;2023-01-15T06:35:20;96083.53;;;6.37;100.00
55914;BME280;58179;48.776;9.124;2023-01-15T06:37:48;96099.56;;;6.41;100.00
55914;BME280;58179;48.776;9.124;2023-01-15T06:40:14;96093.75;;;6.34;100.00
55914;BME280;58179;48.776;9.124;2023-01-15T06:42:40;96102.44;;;6.34;100.00
55914;BME280;58179;48.776;9.124;2023-01-15T06:45:25;96122.13;;;6.32;100.00
55914;BME280;58179;48.776;9.124;2023-01-15T06:48:11;96113.97;;;6.28;100.00
55914;BME280;58179;48.776;9.124;2023-01-15T06:50:37;96115.28;;;6.26;100.00
55914;BME280;58179;48.776;9.124;2023-01-15T06:53:02;96120.19;;;6.17;100.00
55914;BME280;58179;48.776;9.124;2023-01-15T06:55:28;96129.91;;;6.11;100.00
55914;BME280;58179;48.776;9.124;2023-01-15T06:57:54;96133.28;;;6.07;100.00
55914;BME280;58179;48.776;9.124;2023-01-15T07:00:20;96128.22;;;5.95;100.00
55914;BME280;58179;48.776;9.124;2023-01-15T07:02:46;96149.75;;;5.92;100.00
55914;BME280;58179;48.776;9.124;2023-01-15T07:05:13;96151.06;;;5.95;100.00
55914;BME280;58179;48.776;9.124;2023-01-15T07:07:39;96170.78;;;5.97;100.00
55914;BME280;58179;48.776;9.124;2023-01-15T07:10:07;96188.22;;;5.81;100.00
55914;BME280;58179;48.776;9.124;2023-01-15T07:12:34;96179.50;;;5.76;100.00
55914;BME280;58179;48.776;9.124;2023-01-15T07:14:59;96190.25;;;5.74;100.00
55914;BME280;58179;48.776;9.124;2023-01-15T07:17:25;96190.44;;;5.63;100.00
55914;BME280;58179;48.776;9.124;2023-01-15T07:19:51;96201.84;;;5.52;100.00
55914;BME280;58179;48.776;9.124;2023-01-15T07:22:18;96194.56;;;5.59;100.00
55914;BME280;58179;48.776;9.124;2023-01-15T07:24:44;96213.63;;;5.49;100.00
55914;BME280;58179;48.776;9.124;2023-01-15T07:27:10;96217.81;;;5.45;100.00
55914;BME280;58179;48.776;9.124;2023-01-15T07:29:36;96220.91;;;5.42;100.00
55914;BME280;58179;48.776;9.124;2023-01-15T07:32:04;96232.19;;;5.42;100.00
55914;BME280;58179;48.776;9.124;2023-01-15T07:34:30;96228.72;;;5.37;100.00
55914;BME280;58179;48.776;9.124;2023-01-15T07:36:55;96239.97;;;5.32;100.00
55914;BME280;58179;48.776;9.124;2023-01-15T07:39:23;96230.72;;;5.25;100.00
55914;BME280;58179;48.776;9.124;2023-01-15T07:41:49;96243.50;;;5.21;100.00
55914;BME280;58179;48.776;9.124;2023-01-15T07:44:33;96233.81;;;5.22;100.00
55914;BME280;58179;48.776;9.124;2023-01-15T07:47:20;96222.16;;;5.13;100.00
55914;BME280;58179;48.776;9.124;2023-01-15T07:50:09;96220.66;;;5.17;100.00
55914;BME280;58179;48.776;9.124;2023-01-15T07:52:35;96244.00;;;5.18;100.00
55914;BME280;58179;48.776;9.124;2023-01-15T07:55:03;96247.44;;;5.19;100.00
55914;BME280;58179;48.776;9.124;2023-01-15T07:57:30;96260.97;;;5.11;100.00
55914;BME280;58179;48.776;9.124;2023-01-15T07:59:56;96257.56;;;5.10;100.00
55914;BME280;58179;48.776;9.124;2023-01-15T08:02:22;96284.72;;;5.04;100.00
55914;BME280;58179;48.776;9.124;2023-01-15T08:04:48;96272.69;;;5.03;100.00
55914;BME280;58179;48.776;9.124;2023-01-15T08:07:14;96279.19;;;5.00;100.00
55914;BME280;58179;48.776;9.124;2023-01-15T08:09:40;96291.19;;;4.96;100.00
55914;BME280;58179;48.776;9.124;2023-01-15T08:12:09;96286.44;;;4.93;100.00
55914;BME280;58179;48.776;9.124;2023-01-15T08:14:54;96301.94;;;4.95;100.00
55914;BME280;58179;48.776;9.124;2023-01-15T08:17:39;96294.47;;;5.03;100.00
55914;BME280;58179;48.776;9.124;2023-01-15T08:20:09;96308.09;;;5.05;100.00
55914;BME280;58179;48.776;9.124;2023-01-15T08:22:35;96302.56;;;5.02;100.00
55914;BME280;58179;48.776;9.124;2023-01-15T08:25:04;96300.84;;;5.13;100.00
55914;BME280;58179;48.776;9.124;2023-01-15T08:27:31;96298.91;;;5.03;100.00
55914;BME280;58179;48.776;9.124;2023-01-15T08:29:57;96311.22;;;5.02;100.00
55914;BME280;58179;48.776;9.124;2023-01-15T08:32:23;96311.28;;;5.07;100.00
55914;BME280;58179;48.776;9.124;2023-01-15T08:34:49;96317.41;;;4.96;100.00
55914;BME280;58179;48.776;9.124;2023-01-15T08:37:15;96331.50;;;4.90;100.00
55914;BME280;58179;48.776;9.124;2023-01-15T08:39:41;96323.38;;;4.92;100.00
55914;BME280;58179;48.776;9.124;2023-01-15T08:42:07;96321.09;;;4.95;100.00
55914;BME280;58179;48.776;9.124;2023-01-15T08:44:35;96332.63;;;4.94;100.00
55914;BME280;58179;48.776;9.124;2023-01-15T08:47:00;96334.09;;;4.90;100.00
55914;BME280;58179;48.776;9.124;2023-01-15T08:49:27;96354.22;;;4.85;100.00
55914;BME280;58179;48.776;9.124;2023-01-15T08:51:52;96357.31;;;4.82;100.00
55914;BME280;58179;48.776;9.124;2023-01-15T08:54:20;96344.59;;;4.90;100.00
55914;BME280;58179;48.776;9.124;2023-01-15T08:56:47;96362.56;;;4.82;100.00
55914;BME280;58179;48.776;9.124;2023-01-15T08:59:14;96368.19;;;4.90;100.00
55914;BME280;58179;48.776;9.124;2023-01-15T09:01:41;96369.72;;;4.86;100.00
55914;BME280;58179;48.776;9.124;2023-01-15T09:04:11;96383.88;;;4.85;100.00
55914;BME280;58179;48.776;9.124;2023-01-15T09:06:37;96379.97;;;4.88;100.00
55914;BME280;58179;48.776;9.124;2023-01-15T09:09:03;96378.28;;;4.82;100.00
55914;BME280;58179;48.776;9.124;2023-01-15T09:11:29;96376.72;;;4.81;100.00
55914;BME280;58179;48.776;9.124;2023-01-15T09:13:55;96374.09;;;4.81;100.00
55914;BME280;58179;48.776;9.124;2023-01-15T09:16:22;96365.97;;;4.82;100.00
55914;BME280;58179;48.776;9.124;2023-01-15T09:18:49;96381.53;;;4.89;100.00
55914;BME280;58179;48.776;9.124;2023-01-15T09:21:15;96386.16;;;4.82;100.00
55914;BME280;58179;48.776;9.124;2023-01-15T09:23:41;96391.25;;;4.88;100.00
55914;BME280;58179;48.776;9.124;2023-01-15T09:26:06;96402.38;;;4.95;100.00
55914;BME280;58179;48.776;9.124;2023-01-15T09:28:33;96415.78;;;4.99;100.00
55914;BME280;58179;48.776;9.124;2023-01-15T09:31:00;96442.66;;;5.06;100.00
55914;BME280;58179;48.776;9.124;2023-01-15T09:33:26;96444.81;;;5.09;100.00
55914;BME280;58179;48.776;9.124;2023-01-15T09:35:53;96447.19;;;5.11;100.00
55914;BME280;58179;48.776;9.124;2023-01-15T09:38:20;96457.75;;;5.16;100.00
55914;BME280;58179;48.776;9.124;2023-01-15T09:40:49;96444.25;;;5.24;100.00
55914;BME280;58179;48.776;9.124;2023-01-15T09:43:26;96433.59;;;5.30;100.00
55914;BME280;58179;48.776;9.124;2023-01-15T09:45:59;96439.84;;;5.29;100.00
55914;BME280;58179;48.776;9.124;2023-01-15T09:48:45;96455.22;;;5.21;100.00
55914;BME280;58179;48.776;9.124;2023-01-15T09:51:27;96452.13;;;5.24;100.00
55914;BME280;58179;48.776;9.124;2023-01-15T09:54:20;96455.88;;;5.11;100.00
55914;BME280;58179;48.776;9.124;2023-01-15T09:56:53;96465.97;;;5.02;100.00
55914;BME280;58179;48.776;9.124;2023-01-15T09:59:32;96467.94;;;4.95;100.00
55914;BME280;58179;48.776;9.124;2023-01-15T10:02:00;96475.31;;;4.98;100.00
55914;BME280;58179;48.776;9.124;2023-01-15T10:04:36;96494.09;;;5.07;100.00
55914;BME280;58179;48.776;9.124;2023-01-15T10:07:11;96490.47;;;4.96;100.00
55914;BME280;58179;48.776;9.124;2023-01-15T10:09:43;96490.34;;;5.03;100.00
55914;BME280;58179;48.776;9.124;2023-01-15T10:12:17;96481.59;;;4.97;100.00
55914;BME280;58179;48.776;9.124;2023-01-15T10:15:09;96487.09;;;4.96;100.00
55914;BME280;58179;48.776;9.124;2023-01-15T10:17:40;96488.66;;;4.97;100.00
55914;BME280;58179;48.776;9.124;2023-01-15T10:20:28;96497.31;;;4.97;100.00
55914;BME280;58179;48.776;9.124;2023-01-15T10:23:15;96501.06;;;5.01;100.00
55914;BME280;58179;48.776;9.124;2023-01-15T10:25:49;96509.97;;;5.00;100.00
55914;BME280;58179;48.776;9.124;2023-01-15T10:28:21;96519.50;;;5.06;100.00
55914;BME280;58179;48.776;9.124;2023-01-15T10:30:52;96507.75;;;5.09;100.00
55914;BME280;58179;48.776;9.124;2023-01-15T10:33:40;96517.06;;;5.17;100.00
55914;BME280;58179;48.776;9.124;2023-01-15T10:36:12;96518.09;;;5.16;100.00
55914;BME280;58179;48.776;9.124;2023-01-15T10:38:49;96526.75;;;5.16;100.00
55914;BME280;58179;48.776;9.124;2023-01-15T10:41:41;96532.31;;;5.20;100.00
55914;BME280;58179;48.776;9.124;2023-01-15T10:44:16;96525.41;;;5.14;100.00
55914;BME280;58179;48.776;9.124;2023-01-15T10:46:48;96525.09;;;5.10;100.00
55914;BME280;58179;48.776;9.124;2023-01-15T10:49:17;96533.88;;;5.04;100.00
55914;BME280;58179;48.776;9.124;2023-01-15T10:51:46;96533.34;;;5.02;100.00
55914;BME280;58179;48.776;9.124;2023-01-15T10:54:23;96561.28;;;4.96;100.00
55914;BME280;58179;48.776;9.124;2023-01-15T10:56:55;96581.63;;;4.89;100.00
55914;BME280;58179;48.776;9.124;2023-01-15T10:59:35;96567.16;;;4.87;100.00
55914;BME280;58179;48.776;9.124;2023-01-15T11:02:23;96550.88;;;4.56;100.00
55914;BME280;58179;48.776;9.124;2023-01-15T11:04:50;96548.94;;;4.52;100.00
55914;BME280;58179;48.776;9.124;2023-01-15T11:07:17;96548.63;;;4.48;100.00
55914;BME280;58179;48.776;9.124;2023-01-15T11:09:44;96555.28;;;4.27;100.00
55914;BME280;58179;48.776;9.124;2023-01-15T11:12:21;96571.66;;;4.23;100.00
55914;BME280;58179;48.776;9.124;2023-01-15T11:14:48;96576.38;;;4.09;100.00
55914;BME280;58179;48.776;9.124;2023-01-15T11:17:35;96584.56;;;4.13;100.00
55914;BME280;58179;48.776;9.124;2023-01-15T11:20:27;96575.91;;;4.12;100.00
55914;BME280;58179;48.776;9.124;2023-01-15T11:22:54;96595.59;;;3.92;100.00
55914;BME280;58179;48.776;9.124;2023-01-15T11:25:28;96591.06;;;3.87;100.00
55914;BME280;58179;48.776;9.124;2023-01-15T11:27:54;96590.16;;;3.81;100.00
55914;BME280;58179;48.776;9.124;2023-01-15T11:30:28;96588.91;;;3.84;100.00
55914;BME280;58179;48.776;9.124;2023-01-15T11:32:56;96593.91;;;3.85;100.00
55914;BME280;58179;48.776;9.124;2023-01-15T11:35:22;96590.50;;;3.85;100.00
55914;BME280;58179;48.776;9.124;2023-01-15T11:37:49;96606.19;;;3.85;100.00
55914;BME280;58179;48.776;9.124;2023-01-15T11:40:16;96597.44;;;3.91;100.00
55914;BME280;58179;48.776;9.124;2023-01-15T11:42:46;96596.97;;;3.94;100.00
55914;BME280;58179;48.776;9.124;2023-01-15T11:45:31;96593.78;;;3.92;100.00
55914;BME280;58179;48.776;9.124;2023-01-15T11:48:19;96595.84;;;3.78;100.00
55914;BME280;58179;48.776;9.124;2023-01-15T11:51:07;96584.13;;;3.81;100.00
55914;BME280;58179;48.776;9.124;2023-01-15T11:53:39;96585.84;;;3.75;100.00
55914;BME280;58179;48.776;9.124;2023-01-15T11:56:10;96605.41;;;3.73;100.00
55914;BME280;58179;48.776;9.124;2023-01-15T11:58:44;96600.97;;;3.73;100.00
55914;BME280;58179;48.776;9.124;2023-01-15T12:01:12;96601.63;;;3.69;100.00
55914;BME280;58179;48.776;9.124;2023-01-15T12:03:40;96601.19;;;3.60;100.00
55914;BME280;58179;48.776;9.124;2023-01-15T12:06:10;96603.00;;;3.60;100.00
55914;BME280;58179;48.776;9.124;2023-01-15T12:08:45;96604.69;;;3.42;100.00
55914;BME280;58179;48.776;9.124;2023-01-15T12:11:49;96601.16;;;3.37;100.00
55914;BME280;58179;48.776;9.124;2023-01-15T12:14:59;96616.38;;;3.40;100.00
55914;BME280;58179;48.776;9.124;2023-01-15T12:24:31;96620.91;;;3.33;100.00
55914;BME280;58179;48.776;9.124;2023-01-15T12:27:19;96616.16;;;3.41;100.00
55914;BME280;58179;48.776;9.124;2023-01-15T12:29:56;96622.31;;;3.47;100.00
55914;BME280;58179;48.776;9.124;2023-01-15T12:32:27;96619.72;;;3.59;100.00
55914;BME280;58179;48.776;9.124;2023-01-15T12:35:00;96587.75;;;3.45;100.00
55914;BME280;58179;48.776;9.124;2023-01-15T12:37:29;96596.03;;;3.42;100.00
55914;BME280;58179;48.776;9.124;2023-01-15T12:40:04;96589.41;;;3.39;100.00
55914;BME280;58179;48.776;9.124;2023-01-15T12:42:35;96589.66;;;3.38;100.00
55914;BME280;58179;48.776;9.124;2023-01-15T12:45:26;96596.56;;;3.32;100.00
55914;BME280;58179;48.776;9.124;2023-01-15T12:48:01;96589.28;;;3.23;100.00
55914;BME280;58179;48.776;9.124;2023-01-15T12:50:38;96599.66;;;3.29;100.00
55914;BME280;58179;48.776;9.124;2023-01-15T12:53:13;96603.06;;;3.30;100.00
55914;BME280;58179;48.776;9.124;2023-01-15T12:55:45;96597.00;;;3.18;100.00
55914;BME280;58179;48.776;9.124;2023-01-15T12:58:30;96591.91;;;3.23;100.00
55914;BME280;58179;48.776;9.124;2023-01-15T13:01:05;96614.09;;;3.32;100.00
55914;BME280;58179;48.776;9.124;2023-01-15T13:03:48;96618.88;;;3.35;100.00
55914;BME280;58179;48.776;9.124;2023-01-15T13:06:18;96614.22;;;3.37;100.00
55914;BME280;58179;48.776;9.124;2023-01-15T13:08:55;96612.97;;;3.39;100.00
55914;BME280;58179;48.776;9.124;2023-01-15T13:11:22;96614.13;;;3.55;100.00
55914;BME280;58179;48.776;9.124;2023-01-15T13:13:48;96609.81;;;3.49;100.00
55914;BME280;58179;48.776;9.124;2023-01-15T13:16:33;96610.16;;;3.53;100.00
55914;BME280;58179;48.776;9.124;2023-01-15T13:19:26;96621.22;;;3.66;100.00
55914;BME280;58179;48.776;9.124;2023-01-15T13:21:57;96617.34;;;3.69;100.00
55914;BME280;58179;48.776;9.124;2023-01-15T13:25:19;96623.72;;;3.73;100.00
55914;BME280;58179;48.776;9.124;2023-01-15T13:28:04;96628.84;;;3.79;100.00